createdAt,value
2017-07-10T00:00:25.595Z,87.0
2017-07-10T00:01:05.924Z,87.0
2017-07-10T00:01:46.370Z,87.5
2017-07-10T00:02:26.900Z,87.6
2017-07-10T00:03:07.045Z,87.6
2017-07-10T00:03:47.378Z,87.2
2017-07-10T00:04:27.615Z,87.7
2017-07-10T00:05:07.949Z,87.5
2017-07-10T00:05:48.382Z,87.6
2017-07-10T00:06:31.399Z,87.6
2017-07-10T00:07:12.248Z,87.1
2017-07-10T00:07:52.382Z,87.5
2017-07-10T00:08:32.508Z,87.1
2017-07-10T00:09:12.650Z,87.4
2017-07-10T00:09:52.586Z,87.8
2017-07-10T00:10:32.815Z,87.8
2017-07-10T00:11:12.852Z,88.1
2017-07-10T00:11:53.383Z,88.4
2017-07-10T00:12:33.723Z,88.1
2017-07-10T00:13:13.857Z,88.1
2017-07-10T00:13:54.303Z,88.1
2017-07-10T00:14:34.952Z,88.1
2017-07-10T00:15:15.279Z,88.2
2017-07-10T00:15:55.808Z,88.1
2017-07-10T00:16:36.355Z,88.4
2017-07-10T00:17:16.599Z,88.3
2017-07-10T00:17:57.222Z,88.6
2017-07-10T00:18:37.463Z,88.6
2017-07-10T00:19:17.697Z,88.7
2017-07-10T00:19:57.842Z,88.8
2017-07-10T00:20:38.076Z,88.9
2017-07-10T00:21:18.109Z,88.5
2017-07-10T00:21:58.543Z,88.7
2017-07-10T00:22:38.971Z,89.1
2017-07-10T00:23:18.907Z,89.3
2017-07-10T00:23:59.044Z,88.9
2017-07-10T00:24:39.477Z,89.2
2017-07-10T00:25:19.315Z,89.1
2017-07-10T00:25:59.744Z,89.2
2017-07-10T00:26:40.192Z,89.0
2017-07-10T00:27:20.523Z,89.0
2017-07-10T00:28:00.676Z,88.9
2017-07-10T00:28:40.805Z,88.9
2017-07-10T00:29:21.043Z,89.3
2017-07-10T00:30:01.375Z,89.1
2017-07-10T00:30:41.623Z,89.1
2017-07-10T00:31:21.850Z,89.2
2017-07-10T00:32:02.184Z,89.5
2017-07-10T00:32:42.748Z,89.6
2017-07-10T00:33:23.017Z,89.7
2017-07-10T00:34:03.357Z,89.3
2017-07-10T00:34:43.302Z,89.9
2017-07-10T00:35:23.837Z,89.5
2017-07-10T00:36:04.070Z,89.7
2017-07-10T00:36:43.939Z,89.7
2017-07-10T00:37:23.777Z,89.8
2017-07-10T00:38:03.916Z,89.0
2017-07-10T00:38:44.155Z,89.0
2017-07-10T00:39:24.091Z,89.3
2017-07-10T00:40:04.520Z,89.6
2017-07-10T00:40:44.865Z,89.6
2017-07-10T00:41:25.092Z,89.4
2017-07-10T00:42:05.336Z,89.6
2017-07-10T00:42:45.687Z,89.5
2017-07-10T00:43:26.324Z,89.2
2017-07-10T00:44:07.162Z,89.9
2017-07-10T00:44:47.400Z,89.5
2017-07-10T00:45:27.939Z,89.3
2017-07-10T00:46:08.469Z,89.5
2017-07-10T00:46:48.810Z,89.3
2017-07-10T00:47:28.936Z,89.2
2017-07-10T00:48:09.471Z,89.4
2017-07-10T00:48:49.808Z,89.2
2017-07-10T00:49:30.036Z,89.9
2017-07-10T00:50:10.180Z,89.7
2017-07-10T00:50:50.310Z,89.8
2017-07-10T00:51:30.650Z,90.0
2017-07-10T00:52:10.880Z,89.9
2017-07-10T00:52:51.114Z,89.9
2017-07-10T00:53:31.556Z,89.9
2017-07-10T00:54:11.493Z,90.0
2017-07-10T00:54:51.925Z,90.3
2017-07-10T00:55:32.159Z,90.0
2017-07-10T00:56:12.099Z,90.0
2017-07-10T00:56:52.625Z,90.5
2017-07-10T00:57:32.955Z,90.5
2017-07-10T00:58:13.492Z,90.5
2017-07-10T00:58:53.927Z,90.4
2017-07-10T00:59:34.464Z,90.2
2017-07-10T01:00:14.691Z,90.2
2017-07-10T01:00:54.731Z,90.4
2017-07-10T01:01:34.765Z,90.1
2017-07-10T01:02:15.199Z,90.2
2017-07-10T01:02:55.538Z,90.2
2017-07-10T01:03:36.063Z,90.3
2017-07-10T01:04:16.399Z,90.0
2017-07-10T01:04:57.029Z,90.0
2017-07-10T01:05:37.274Z,89.8
2017-07-10T01:06:17.821Z,89.6
2017-07-10T01:06:58.646Z,89.4
2017-07-10T01:07:39.079Z,89.7
2017-07-10T01:08:19.210Z,89.7
2017-07-10T01:08:59.544Z,89.5
2017-07-10T01:09:39.781Z,89.6
2017-07-10T01:10:19.831Z,89.9
2017-07-10T01:11:00.477Z,89.5
2017-07-10T01:11:41.012Z,89.6
2017-07-10T01:12:21.146Z,89.9
2017-07-10T01:13:01.981Z,89.9
2017-07-10T01:13:42.622Z,90.2
2017-07-10T01:14:23.181Z,90.3
2017-07-10T01:15:03.608Z,90.3
2017-07-10T01:15:43.647Z,90.3
2017-07-10T01:16:23.890Z,90.0
2017-07-10T01:17:04.324Z,90.2
2017-07-10T01:17:44.568Z,90.0
2017-07-10T01:18:24.610Z,90.5
2017-07-10T01:19:05.033Z,90.1
2017-07-10T01:19:45.272Z,90.3
2017-07-10T01:20:25.509Z,90.1
2017-07-10T01:21:05.549Z,90.4
2017-07-10T01:21:46.095Z,90.1
2017-07-10T01:22:26.622Z,90.8
2017-07-10T01:23:07.259Z,90.1
2017-07-10T01:23:47.395Z,91.1
2017-07-10T01:24:27.434Z,91.0
2017-07-10T01:25:07.361Z,90.9
2017-07-10T01:25:47.798Z,90.8
2017-07-10T01:26:27.936Z,91.1
2017-07-10T01:27:08.485Z,90.7
2017-07-10T01:27:48.822Z,90.5
2017-07-10T01:28:28.954Z,90.8
2017-07-10T01:29:09.591Z,90.7
2017-07-10T01:29:49.325Z,90.6
2017-07-10T01:30:29.558Z,90.9
2017-07-10T01:31:09.991Z,90.7
2017-07-10T01:31:50.224Z,90.8
2017-07-10T01:32:30.663Z,90.6
2017-07-10T01:33:11.194Z,91.0
2017-07-10T01:33:51.426Z,90.7
2017-07-10T01:34:31.965Z,90.6
2017-07-10T01:35:12.498Z,90.6
2017-07-10T01:35:52.938Z,90.7
2017-07-10T01:36:33.388Z,90.9
2017-07-10T01:37:13.334Z,90.7
2017-07-10T01:37:53.658Z,90.9
2017-07-10T01:38:33.797Z,90.9
2017-07-10T01:39:14.234Z,91.1
2017-07-10T01:39:54.666Z,90.5
2017-07-10T01:40:35.004Z,91.0
2017-07-10T01:41:15.432Z,90.9
2017-07-10T01:41:55.871Z,90.2
2017-07-10T01:42:36.201Z,90.9
2017-07-10T01:43:16.533Z,91.0
2017-07-10T01:43:56.865Z,91.4
2017-07-10T01:44:37.193Z,91.2
2017-07-10T01:45:17.736Z,90.9
2017-07-10T01:45:57.863Z,90.4
2017-07-10T01:46:38.498Z,90.9
2017-07-10T01:47:18.736Z,90.2
2017-07-10T01:47:58.767Z,90.9
2017-07-10T01:48:39.199Z,91.0
2017-07-10T01:49:19.537Z,91.0
2017-07-10T01:49:59.580Z,90.7
2017-07-10T01:50:39.905Z,90.7
2017-07-10T01:51:20.247Z,90.5
2017-07-10T01:52:00.879Z,90.7
2017-07-10T01:52:41.109Z,91.0
2017-07-10T01:53:21.343Z,90.7
2017-07-10T01:54:01.473Z,91.0
2017-07-10T01:54:41.906Z,91.5
2017-07-10T01:55:22.145Z,91.3
2017-07-10T01:56:02.390Z,91.4
2017-07-10T01:56:43.143Z,91.1
2017-07-10T01:57:23.576Z,91.5
2017-07-10T01:58:04.102Z,91.1
2017-07-10T01:58:45.143Z,91.4
2017-07-10T01:59:25.289Z,91.1
2017-07-10T02:00:05.530Z,91.3
2017-07-10T02:00:45.677Z,91.5
2017-07-10T02:01:25.910Z,91.7
2017-07-10T02:02:05.971Z,91.5
2017-07-10T02:02:46.300Z,91.4
2017-07-10T02:03:26.932Z,91.5
2017-07-10T02:04:07.271Z,91.2
2017-07-10T02:04:47.402Z,91.3
2017-07-10T02:05:27.737Z,91.0
2017-07-10T02:06:08.072Z,91.3
2017-07-10T02:06:48.707Z,91.4
2017-07-10T02:07:28.937Z,90.9
2017-07-10T02:08:09.173Z,90.7
2017-07-10T02:08:49.534Z,91.3
2017-07-10T02:09:30.063Z,91.2
2017-07-10T02:10:10.697Z,91.5
2017-07-10T02:10:51.239Z,92.0
2017-07-10T02:11:31.775Z,91.3
2017-07-10T02:12:12.119Z,91.2
2017-07-10T02:12:52.356Z,91.3
2017-07-10T02:13:32.500Z,90.7
2017-07-10T02:14:13.121Z,91.3
2017-07-10T02:14:53.562Z,90.9
2017-07-10T02:15:34.087Z,90.9
2017-07-10T02:16:14.521Z,90.9
2017-07-10T02:16:54.865Z,91.0
2017-07-10T02:17:35.199Z,91.0
2017-07-10T02:18:15.636Z,90.7
2017-07-10T02:18:56.264Z,90.7
2017-07-10T02:19:36.699Z,90.9
2017-07-10T02:20:17.033Z,90.9
2017-07-10T02:20:57.264Z,90.7
2017-07-10T02:21:37.498Z,90.9
2017-07-10T02:22:17.442Z,90.8
2017-07-10T02:22:57.771Z,90.6
2017-07-10T02:23:38.308Z,91.0
2017-07-10T02:24:18.453Z,90.7
2017-07-10T02:24:58.883Z,91.0
2017-07-10T02:25:39.314Z,90.8
2017-07-10T02:26:19.542Z,90.7
2017-07-10T02:26:59.280Z,90.7
2017-07-10T02:27:39.825Z,90.5
2017-07-10T02:28:20.149Z,90.4
2017-07-10T02:29:00.393Z,90.1
2017-07-10T02:29:40.630Z,90.3
2017-07-10T02:30:20.863Z,90.5
2017-07-10T02:31:01.299Z,90.5
2017-07-10T02:31:41.741Z,90.3
2017-07-10T02:32:22.178Z,90.3
2017-07-10T02:33:02.218Z,90.3
2017-07-10T02:33:42.555Z,90.5
2017-07-10T02:34:22.683Z,90.5
2017-07-10T02:35:02.918Z,90.2
2017-07-10T02:35:43.055Z,90.0
2017-07-10T02:36:23.481Z,89.5
2017-07-10T02:37:04.021Z,90.1
2017-07-10T02:37:44.356Z,90.5
2017-07-10T02:38:24.590Z,90.3
2017-07-10T02:39:04.824Z,90.2
2017-07-10T02:39:44.765Z,90.5
2017-07-10T02:40:24.799Z,90.5
2017-07-10T02:41:05.036Z,90.6
2017-07-10T02:41:45.470Z,90.2
2017-07-10T02:42:25.704Z,90.5
2017-07-10T02:43:06.041Z,90.1
2017-07-10T02:43:46.670Z,90.5
2017-07-10T02:44:26.803Z,90.7
2017-07-10T02:45:06.833Z,90.9
2017-07-10T02:45:46.571Z,90.7
2017-07-10T02:46:28.411Z,90.1
2017-07-10T02:47:09.245Z,90.2
2017-07-10T02:47:49.477Z,90.3
2017-07-10T02:48:30.005Z,90.1
2017-07-10T02:49:09.939Z,90.8
2017-07-10T02:49:50.068Z,90.1
2017-07-10T02:50:30.602Z,90.6
2017-07-10T02:51:11.328Z,90.5
2017-07-10T02:51:51.659Z,90.4
2017-07-10T02:52:32.099Z,90.2
2017-07-10T02:53:12.431Z,90.4
2017-07-10T02:53:52.769Z,90.2
2017-07-10T02:54:33.099Z,90.3
2017-07-10T02:55:13.628Z,90.0
2017-07-10T02:55:53.862Z,89.4
2017-07-10T02:56:35.398Z,89.5
2017-07-10T02:57:15.945Z,89.5
2017-07-10T02:57:56.075Z,89.3
2017-07-10T02:58:36.514Z,89.8
2017-07-10T02:59:16.853Z,89.3
2017-07-10T02:59:57.091Z,89.5
2017-07-10T03:00:37.521Z,90.0
2017-07-10T03:01:17.951Z,89.5
2017-07-10T03:01:58.285Z,89.5
2017-07-10T03:02:38.712Z,89.3
2017-07-10T03:03:18.855Z,89.6
2017-07-10T03:03:58.984Z,90.1
2017-07-10T03:04:39.422Z,89.8
2017-07-10T03:05:19.860Z,89.8
2017-07-10T03:06:00.390Z,89.8
2017-07-10T03:06:40.344Z,89.6
2017-07-10T03:07:20.873Z,90.0
2017-07-10T03:08:01.022Z,89.6
2017-07-10T03:08:41.160Z,90.5
2017-07-10T03:09:21.292Z,90.2
2017-07-10T03:10:01.632Z,90.1
2017-07-10T03:10:41.964Z,90.2
2017-07-10T03:11:22.009Z,90.5
2017-07-10T03:12:02.135Z,90.0
2017-07-10T03:12:42.277Z,90.3
2017-07-10T03:13:23.912Z,90.4
2017-07-10T03:14:04.241Z,89.8
2017-07-10T03:14:44.783Z,89.9
2017-07-10T03:15:25.123Z,89.4
2017-07-10T03:16:05.662Z,89.6
2017-07-10T03:16:45.693Z,89.9
2017-07-10T03:17:26.229Z,89.8
2017-07-10T03:18:06.565Z,89.9
2017-07-10T03:18:46.994Z,89.8
2017-07-10T03:19:27.330Z,89.7
2017-07-10T03:20:07.857Z,89.7
2017-07-10T03:20:48.101Z,89.9
2017-07-10T03:21:28.333Z,89.6
2017-07-10T03:22:08.662Z,89.9
2017-07-10T03:22:48.901Z,90.5
2017-07-10T03:23:29.369Z,90.3
2017-07-10T03:24:09.725Z,90.4
2017-07-10T03:24:50.980Z,90.7
2017-07-10T03:25:30.937Z,90.3
2017-07-10T03:26:11.064Z,90.5
2017-07-10T03:26:52.502Z,90.6
2017-07-10T03:27:32.931Z,90.7
2017-07-10T03:28:13.258Z,90.3
2017-07-10T03:28:53.892Z,90.2
2017-07-10T03:29:34.131Z,90.1
2017-07-10T03:30:14.673Z,90.5
2017-07-10T03:30:54.905Z,90.0
2017-07-10T03:31:35.536Z,90.3
2017-07-10T03:32:15.870Z,90.0
2017-07-10T03:32:56.407Z,90.0
2017-07-10T03:33:36.740Z,90.3
2017-07-10T03:34:17.073Z,90.3
2017-07-10T03:34:57.416Z,90.0
2017-07-10T03:35:37.643Z,90.3
2017-07-10T03:36:17.974Z,90.2
2017-07-10T03:36:58.509Z,90.3
2017-07-10T03:37:38.643Z,90.2
2017-07-10T03:38:18.778Z,90.1
2017-07-10T03:38:59.228Z,90.3
2017-07-10T03:39:39.555Z,90.0
2017-07-10T03:40:19.688Z,90.2
2017-07-10T03:40:59.826Z,90.2
2017-07-10T03:41:39.959Z,90.2
2017-07-10T03:42:20.200Z,90.2
2017-07-10T03:43:00.633Z,90.0
2017-07-10T03:43:40.975Z,90.0
2017-07-10T03:44:21.373Z,90.0
2017-07-10T03:45:01.722Z,90.2
2017-07-10T03:45:41.962Z,90.2
2017-07-10T03:46:22.197Z,89.5
2017-07-10T03:47:02.628Z,89.7
2017-07-10T03:47:43.074Z,89.8
2017-07-10T03:48:23.302Z,90.0
2017-07-10T03:49:03.441Z,90.1
2017-07-10T03:49:43.575Z,90.5
2017-07-10T03:50:23.714Z,90.2
2017-07-10T03:51:04.246Z,89.9
2017-07-10T03:51:44.190Z,90.3
2017-07-10T03:52:24.562Z,90.1
2017-07-10T03:53:04.808Z,90.2
2017-07-10T03:53:45.264Z,89.9
2017-07-10T03:54:25.204Z,90.0
2017-07-10T03:55:05.442Z,89.7
2017-07-10T03:55:45.877Z,89.0
2017-07-10T03:56:28.198Z,89.3
2017-07-10T03:57:08.835Z,89.4
2017-07-10T03:57:49.269Z,88.9
2017-07-10T03:58:29.216Z,89.1
2017-07-10T03:59:09.147Z,89.2
2017-07-10T03:59:49.182Z,89.1
2017-07-10T04:00:29.719Z,88.8
2017-07-10T04:01:10.171Z,88.9
2017-07-10T04:01:50.607Z,89.1
2017-07-10T04:02:31.155Z,89.6
2017-07-10T04:03:11.493Z,89.7
2017-07-10T04:03:51.636Z,89.7
2017-07-10T04:04:31.877Z,89.1
2017-07-10T04:05:12.312Z,89.1
2017-07-10T04:05:52.748Z,88.9
2017-07-10T04:06:34.826Z,88.9
2017-07-10T04:07:15.076Z,89.1
2017-07-10T04:07:55.321Z,89.3
2017-07-10T04:08:35.663Z,88.5
2017-07-10T04:09:16.021Z,88.9
2017-07-10T04:09:56.461Z,88.6
2017-07-10T04:10:37.096Z,88.3
2017-07-10T04:11:17.530Z,88.4
2017-07-10T04:11:57.767Z,88.6
2017-07-10T04:12:38.204Z,88.6
2017-07-10T04:13:18.438Z,88.2
2017-07-10T04:13:58.690Z,88.4
2017-07-10T04:14:39.429Z,89.0
2017-07-10T04:15:19.665Z,88.7
2017-07-10T04:16:00.108Z,89.0
2017-07-10T04:16:40.254Z,88.9
2017-07-10T04:17:20.706Z,89.0
2017-07-10T04:18:01.136Z,88.9
2017-07-10T04:18:41.475Z,88.8
2017-07-10T04:19:21.618Z,88.8
2017-07-10T04:20:02.151Z,88.4
2017-07-10T04:20:42.687Z,88.5
2017-07-10T04:21:23.024Z,88.0
2017-07-10T04:22:03.563Z,88.1
2017-07-10T04:22:44.409Z,88.2
2017-07-10T04:23:24.468Z,87.9
2017-07-10T04:24:04.595Z,88.1
2017-07-10T04:24:45.043Z,87.9
2017-07-10T04:25:25.292Z,88.6
2017-07-10T04:26:05.324Z,88.1
2017-07-10T04:26:45.282Z,88.1
2017-07-10T04:27:25.716Z,88.4
2017-07-10T04:28:06.050Z,88.3
2017-07-10T04:28:46.482Z,88.1
2017-07-10T04:29:26.832Z,88.4
2017-07-10T04:30:06.869Z,88.0
2017-07-10T04:30:47.313Z,87.7
2017-07-10T04:31:27.457Z,87.6
2017-07-10T04:32:07.604Z,87.7
2017-07-10T04:32:48.334Z,87.4
2017-07-10T04:33:28.669Z,87.3
2017-07-10T04:34:09.407Z,87.1
2017-07-10T04:34:49.745Z,87.1
2017-07-10T04:35:30.079Z,87.3
2017-07-10T04:36:10.419Z,87.8
2017-07-10T04:36:50.955Z,87.6
2017-07-10T04:37:31.093Z,87.6
2017-07-10T04:38:11.338Z,87.3
2017-07-10T04:38:52.073Z,87.0
2017-07-10T04:39:33.724Z,87.4
2017-07-10T04:40:15.055Z,87.4
2017-07-10T04:40:55.301Z,87.5
2017-07-10T04:41:35.634Z,87.1
2017-07-10T04:42:15.978Z,87.5
2017-07-10T04:42:56.215Z,87.4
2017-07-10T04:43:36.364Z,87.3
2017-07-10T04:44:17.003Z,87.5
2017-07-10T04:44:57.547Z,87.4
2017-07-10T04:45:37.797Z,87.6
2017-07-10T04:46:18.248Z,87.5
2017-07-10T04:46:58.491Z,87.4
2017-07-10T04:47:39.034Z,87.6
2017-07-10T04:48:19.372Z,87.2
2017-07-10T04:48:59.919Z,87.2
2017-07-10T04:49:40.249Z,87.3
2017-07-10T04:50:20.892Z,87.6
2017-07-10T04:51:00.925Z,87.5
2017-07-10T04:51:40.864Z,87.7
2017-07-10T04:52:21.205Z,87.3
2017-07-10T04:53:01.649Z,87.3
2017-07-10T04:53:42.084Z,87.4
2017-07-10T04:54:21.930Z,87.4
2017-07-10T04:55:02.390Z,87.7
2017-07-10T04:55:42.728Z,87.4
2017-07-10T04:56:22.862Z,87.4
2017-07-10T04:57:03.299Z,87.6
2017-07-10T04:57:43.640Z,87.7
2017-07-10T04:58:23.998Z,87.6
2017-07-10T04:59:04.539Z,87.0
2017-07-10T04:59:44.678Z,87.6
2017-07-10T05:00:25.728Z,87.8
2017-07-10T05:01:06.370Z,87.4
2017-07-10T05:01:46.504Z,87.7
2017-07-10T05:02:27.144Z,87.2
2017-07-10T05:03:07.781Z,87.3
2017-07-10T05:03:48.117Z,87.7
2017-07-10T05:04:28.557Z,88.0
2017-07-10T05:05:08.689Z,87.6
2017-07-10T05:05:49.328Z,87.6
2017-07-10T05:06:29.557Z,88.0
2017-07-10T05:07:09.897Z,88.5
2017-07-10T05:07:50.229Z,87.9
2017-07-10T05:08:30.565Z,88.0
2017-07-10T05:09:10.606Z,88.5
2017-07-10T05:09:50.848Z,88.3
2017-07-10T05:10:31.095Z,88.1
2017-07-10T05:11:11.635Z,88.3
2017-07-10T05:11:51.865Z,88.2
2017-07-10T05:12:32.499Z,88.4
2017-07-10T05:13:12.443Z,87.9
2017-07-10T05:13:52.681Z,88.7
2017-07-10T05:14:33.117Z,88.1
2017-07-10T05:15:13.162Z,88.4
2017-07-10T05:15:53.400Z,88.1
2017-07-10T05:16:33.819Z,88.6
2017-07-10T05:17:14.061Z,88.6
2017-07-10T05:17:57.296Z,88.6
2017-07-10T05:18:37.745Z,88.8
2017-07-10T05:19:18.481Z,88.6
2017-07-10T05:19:58.717Z,88.9
2017-07-10T05:20:39.548Z,89.1
2017-07-10T05:21:19.990Z,89.0
2017-07-10T05:22:00.126Z,88.5
2017-07-10T05:22:40.758Z,89.2
2017-07-10T05:23:20.803Z,89.3
2017-07-10T05:24:01.029Z,88.9
2017-07-10T05:24:41.377Z,89.6
2017-07-10T05:25:21.717Z,89.0
2017-07-10T05:26:02.268Z,89.6
2017-07-10T05:26:42.932Z,89.8
2017-07-10T05:27:23.169Z,89.7
2017-07-10T05:28:03.408Z,89.6
2017-07-10T05:28:43.747Z,89.4
2017-07-10T05:29:23.787Z,89.4
2017-07-10T05:30:03.926Z,89.7
2017-07-10T05:30:44.375Z,89.6
2017-07-10T05:31:24.711Z,89.8
2017-07-10T05:32:04.940Z,89.4
2017-07-10T05:32:45.395Z,89.5
2017-07-10T05:33:25.725Z,89.5
2017-07-10T05:34:06.164Z,89.5
2017-07-10T05:34:46.194Z,89.7
2017-07-10T05:35:26.328Z,89.1
2017-07-10T05:36:06.874Z,89.1
2017-07-10T05:36:47.015Z,89.0
2017-07-10T05:37:27.455Z,89.0
2017-07-10T05:38:07.890Z,89.1
2017-07-10T05:38:48.236Z,88.8
2017-07-10T05:39:28.493Z,89.0
2017-07-10T05:40:08.734Z,88.6
2017-07-10T05:40:48.786Z,88.8
2017-07-10T05:41:29.407Z,88.9
2017-07-10T05:42:09.648Z,89.3
2017-07-10T05:42:49.681Z,89.8
2017-07-10T05:43:30.122Z,89.5
2017-07-10T05:44:09.956Z,90.5
2017-07-10T05:44:50.304Z,90.8
2017-07-10T05:45:30.738Z,90.4
2017-07-10T05:46:11.078Z,90.8
2017-07-10T05:46:51.625Z,91.0
2017-07-10T05:47:31.963Z,91.0
2017-07-10T05:48:12.803Z,91.5
2017-07-10T05:48:53.240Z,91.3
2017-07-10T05:49:33.484Z,91.7
2017-07-10T05:50:13.919Z,92.3
2017-07-10T05:50:53.957Z,91.3
2017-07-10T05:51:34.203Z,91.1
2017-07-10T05:52:14.536Z,91.9
2017-07-10T05:52:55.281Z,91.9
2017-07-10T05:53:35.612Z,91.3
2017-07-10T05:54:15.749Z,92.4
2017-07-10T05:54:56.227Z,91.9
2017-07-10T05:55:36.773Z,92.8
2017-07-10T05:56:16.916Z,92.3
2017-07-10T05:56:57.349Z,92.4
2017-07-10T05:57:37.488Z,92.6
2017-07-10T05:58:17.312Z,92.4
2017-07-10T05:58:57.547Z,93.6
2017-07-10T05:59:37.983Z,94.2
2017-07-10T06:00:17.920Z,94.7
2017-07-10T06:00:58.371Z,94.0
2017-07-10T06:01:38.905Z,94.0
2017-07-10T06:02:19.142Z,94.5
2017-07-10T06:02:59.586Z,94.3
2017-07-10T06:03:39.729Z,94.9
2017-07-10T06:04:20.048Z,95.5
2017-07-10T06:05:00.589Z,96.6
2017-07-10T06:05:41.053Z,96.7
2017-07-10T06:06:21.591Z,95.6
2017-07-10T06:07:01.230Z,96.0
2017-07-10T06:07:41.624Z,97.2
2017-07-10T06:08:21.608Z,96.5
2017-07-10T06:09:01.546Z,97.8
2017-07-10T06:09:42.075Z,96.9
2017-07-10T06:10:22.220Z,97.5
2017-07-10T06:11:02.252Z,97.7
2017-07-10T06:11:42.698Z,97.9
2017-07-10T06:12:23.041Z,98.1
2017-07-10T06:13:03.197Z,96.8
2017-07-10T06:13:43.533Z,96.5
2017-07-10T06:14:24.172Z,96.1
2017-07-10T06:15:04.115Z,98.3
2017-07-10T06:15:44.357Z,100.0
2017-07-10T06:16:24.489Z,99.1
2017-07-10T06:17:04.528Z,100.0
2017-07-10T06:17:45.272Z,98.9
2017-07-10T06:18:25.707Z,99.6
2017-07-10T06:19:05.945Z,99.9
2017-07-10T06:19:46.496Z,100.0
2017-07-10T06:20:26.828Z,99.9
2017-07-10T06:21:07.067Z,100.0
2017-07-10T06:21:47.101Z,99.3
2017-07-10T06:22:27.540Z,98.1
2017-07-10T06:23:07.802Z,97.7
2017-07-10T06:23:48.433Z,98.4
2017-07-10T06:24:28.974Z,99.6
2017-07-10T06:25:09.217Z,100.0
2017-07-10T06:25:49.649Z,100.0
2017-07-10T06:26:30.559Z,100.0
2017-07-10T06:27:11.602Z,100.0
2017-07-10T06:27:51.752Z,100.0
2017-07-10T06:28:31.790Z,100.0
2017-07-10T06:29:12.422Z,99.2
2017-07-10T06:29:52.655Z,100.0
2017-07-10T06:30:33.189Z,99.7
2017-07-10T06:31:13.034Z,97.9
2017-07-10T06:31:53.266Z,99.2
2017-07-10T06:32:33.403Z,99.2
2017-07-10T06:33:13.546Z,99.0
2017-07-10T06:33:53.889Z,100.0
2017-07-10T06:34:34.424Z,100.0
2017-07-10T06:35:14.457Z,100.0
2017-07-10T06:35:54.692Z,100.0
2017-07-10T06:36:34.949Z,100.0
2017-07-10T06:37:14.899Z,100.0
2017-07-10T06:37:55.135Z,100.0
2017-07-10T06:38:35.780Z,100.0
2017-07-10T06:39:15.912Z,100.0
2017-07-10T06:39:56.353Z,100.0
2017-07-10T06:40:36.790Z,100.0
2017-07-10T06:41:17.330Z,100.0
2017-07-10T06:41:57.568Z,100.0
2017-07-10T06:42:37.904Z,100.0
2017-07-10T06:43:17.946Z,100.0
2017-07-10T06:43:58.077Z,100.0
2017-07-10T06:44:38.519Z,100.0
2017-07-10T06:45:18.661Z,100.0
2017-07-10T06:45:59.101Z,100.0
2017-07-10T06:46:39.641Z,100.0
2017-07-10T06:47:20.078Z,100.0
2017-07-10T06:48:00.427Z,100.0
2017-07-10T06:48:40.864Z,100.0
2017-07-10T06:49:21.410Z,100.0
2017-07-10T06:50:01.840Z,100.0
2017-07-10T06:50:42.078Z,100.0
2017-07-10T06:51:22.826Z,100.0
2017-07-10T06:52:02.960Z,100.0
2017-07-10T06:52:43.055Z,100.0
2017-07-10T06:53:23.341Z,100.0
2017-07-10T06:54:03.782Z,100.0
2017-07-10T06:54:44.025Z,100.0
2017-07-10T06:55:24.465Z,100.0
2017-07-10T06:56:04.906Z,100.0
2017-07-10T06:56:45.050Z,100.0
2017-07-10T06:57:25.503Z,100.0
2017-07-10T06:58:05.836Z,100.0
2017-07-10T06:58:46.182Z,100.0
2017-07-10T06:59:26.816Z,100.0
2017-07-10T07:00:06.655Z,100.0
2017-07-10T07:00:47.909Z,100.0
2017-07-10T07:01:27.970Z,100.0
2017-07-10T07:02:08.015Z,100.0
2017-07-10T07:02:48.852Z,100.0
2017-07-10T07:03:29.387Z,100.0
2017-07-10T07:04:09.629Z,100.0
2017-07-10T07:04:49.867Z,100.0
2017-07-10T07:05:29.905Z,100.0
2017-07-10T07:06:09.951Z,100.0
2017-07-10T07:06:50.288Z,100.0
2017-07-10T07:07:30.428Z,100.0
2017-07-10T07:08:10.874Z,100.0
2017-07-10T07:08:51.236Z,100.0
2017-07-10T07:09:31.480Z,100.0
2017-07-10T07:10:11.921Z,100.0
2017-07-10T07:10:52.360Z,100.0
2017-07-10T07:11:32.501Z,100.0
2017-07-10T07:12:12.839Z,100.0
2017-07-10T07:12:53.072Z,99.9
2017-07-10T07:13:33.721Z,100.0
2017-07-10T07:14:13.972Z,99.3
2017-07-10T07:14:54.417Z,97.6
2017-07-10T07:15:34.648Z,96.9
2017-07-10T07:16:14.795Z,97.1
2017-07-10T07:16:54.827Z,97.5
2017-07-10T07:17:35.173Z,98.0
2017-07-10T07:18:15.707Z,99.5
2017-07-10T07:18:56.242Z,99.5
2017-07-10T07:19:36.587Z,98.2
2017-07-10T07:20:17.021Z,99.0
2017-07-10T07:20:57.570Z,98.0
2017-07-10T07:21:37.599Z,98.4
2017-07-10T07:22:18.039Z,99.2
2017-07-10T07:22:58.478Z,99.5
2017-07-10T07:23:39.027Z,100.0
2017-07-10T07:24:19.858Z,100.0
2017-07-10T07:25:00.002Z,100.0
2017-07-10T07:25:39.956Z,100.0
2017-07-10T07:26:20.486Z,100.0
2017-07-10T07:27:00.925Z,99.4
2017-07-10T07:27:41.263Z,99.5
2017-07-10T07:28:21.503Z,100.0
2017-07-10T07:29:01.844Z,100.0
2017-07-10T07:29:42.287Z,100.0
2017-07-10T07:30:22.028Z,100.0
2017-07-10T07:31:02.709Z,100.0
2017-07-10T07:31:43.109Z,99.3
2017-07-10T07:32:23.748Z,99.1
2017-07-10T07:33:03.981Z,98.7
2017-07-10T07:33:44.424Z,100.0
2017-07-10T07:34:24.963Z,100.0
2017-07-10T07:35:05.509Z,100.0
2017-07-10T07:35:45.941Z,100.0
2017-07-10T07:36:28.109Z,100.0
2017-07-10T07:37:08.337Z,100.0
2017-07-10T07:37:48.870Z,100.0
2017-07-10T07:38:29.115Z,100.0
2017-07-10T07:39:09.848Z,100.0
2017-07-10T07:39:50.091Z,99.8
2017-07-10T07:40:30.027Z,100.0
2017-07-10T07:41:10.278Z,100.0
2017-07-10T07:41:50.825Z,100.0
2017-07-10T07:42:31.103Z,100.0
2017-07-10T07:43:11.032Z,100.0
2017-07-10T07:43:51.387Z,100.0
2017-07-10T07:44:31.941Z,99.9
2017-07-10T07:45:11.977Z,100.0
2017-07-10T07:45:52.617Z,99.7
2017-07-10T07:46:35.676Z,100.0
2017-07-10T07:47:16.120Z,99.7
2017-07-10T07:47:56.352Z,99.5
2017-07-10T07:48:36.482Z,99.4
2017-07-10T07:49:17.028Z,99.4
2017-07-10T07:49:57.265Z,99.9
2017-07-10T07:50:37.613Z,100.0
2017-07-10T07:51:18.154Z,99.9
2017-07-10T07:51:59.092Z,100.0
2017-07-10T07:52:39.633Z,100.0
2017-07-10T07:53:19.871Z,100.0
2017-07-10T07:54:00.251Z,100.0
2017-07-10T07:54:40.492Z,100.0
2017-07-10T07:55:20.732Z,100.0
2017-07-10T07:56:00.773Z,99.7
2017-07-10T07:56:41.021Z,100.0
2017-07-10T07:57:21.263Z,99.9
2017-07-10T07:58:01.600Z,99.1
2017-07-10T07:58:41.736Z,100.0
2017-07-10T07:59:22.184Z,99.4
2017-07-10T08:00:02.735Z,98.7
2017-07-10T08:00:43.074Z,98.0
2017-07-10T08:01:23.531Z,98.5
2017-07-10T08:02:04.073Z,99.7
2017-07-10T08:02:44.231Z,100.0
2017-07-10T08:03:24.264Z,100.0
2017-07-10T08:04:04.703Z,98.7
2017-07-10T08:04:45.150Z,98.8
2017-07-10T08:05:25.482Z,98.9
2017-07-10T08:06:05.717Z,99.2
2017-07-10T08:06:46.361Z,98.8
2017-07-10T08:07:26.404Z,99.0
2017-07-10T08:08:06.751Z,98.2
2017-07-10T08:08:47.202Z,98.1
2017-07-10T08:09:27.549Z,96.9
2017-07-10T08:10:07.689Z,97.0
2017-07-10T08:10:48.342Z,98.1
2017-07-10T08:11:28.676Z,97.8
2017-07-10T08:12:08.709Z,97.9
2017-07-10T08:12:49.750Z,97.8
2017-07-10T08:13:29.787Z,98.8
2017-07-10T08:14:10.120Z,97.5
2017-07-10T08:14:50.255Z,97.8
2017-07-10T08:15:30.794Z,97.0
2017-07-10T08:16:11.332Z,98.1
2017-07-10T08:16:51.471Z,97.2
2017-07-10T08:17:31.515Z,97.1
2017-07-10T08:18:12.444Z,96.1
2017-07-10T08:18:52.579Z,96.4
2017-07-10T08:19:33.126Z,96.8
2017-07-10T08:20:13.562Z,96.6
2017-07-10T08:20:53.796Z,97.9
2017-07-10T08:21:34.130Z,97.1
2017-07-10T08:22:14.268Z,97.6
2017-07-10T08:22:54.314Z,98.1
2017-07-10T08:23:34.557Z,97.9
2017-07-10T08:24:14.999Z,97.3
2017-07-10T08:24:55.135Z,97.6
2017-07-10T08:25:35.483Z,97.5
2017-07-10T08:26:16.019Z,97.4
2017-07-10T08:26:56.568Z,99.1
2017-07-10T08:27:36.804Z,99.5
2017-07-10T08:28:17.143Z,99.1
2017-07-10T08:28:57.402Z,97.9
2017-07-10T08:29:37.838Z,98.6
2017-07-10T08:30:17.980Z,97.7
2017-07-10T08:30:58.219Z,96.6
2017-07-10T08:31:38.382Z,95.8
2017-07-10T08:32:18.919Z,95.9
2017-07-10T08:32:59.256Z,95.6
2017-07-10T08:33:39.591Z,96.2
2017-07-10T08:34:19.997Z,97.0
2017-07-10T08:35:00.235Z,96.6
2017-07-10T08:35:40.575Z,96.7
2017-07-10T08:36:21.312Z,97.3
2017-07-10T08:37:01.344Z,97.3
2017-07-10T08:37:41.887Z,97.8
2017-07-10T08:38:22.422Z,97.2
2017-07-10T08:39:03.064Z,97.2
2017-07-10T08:39:43.302Z,96.9
2017-07-10T08:40:23.644Z,97.9
2017-07-10T08:41:03.889Z,97.6
2017-07-10T08:41:44.629Z,97.9
2017-07-10T08:42:25.173Z,98.0
2017-07-10T08:43:05.821Z,97.7
2017-07-10T08:43:46.164Z,97.3
2017-07-10T08:44:26.505Z,96.2
2017-07-10T08:45:06.868Z,96.9
2017-07-10T08:45:47.491Z,97.2
2017-07-10T08:46:27.648Z,96.9
2017-07-10T08:47:07.919Z,97.2
2017-07-10T08:47:48.357Z,96.8
2017-07-10T08:48:28.708Z,96.9
2017-07-10T08:49:08.852Z,96.2
2017-07-10T08:49:49.388Z,96.4
2017-07-10T08:50:29.835Z,96.2
2017-07-10T08:51:10.363Z,95.5
2017-07-10T08:51:50.819Z,96.3
2017-07-10T08:52:31.159Z,95.6
2017-07-10T08:53:11.697Z,95.7
2017-07-10T08:53:52.237Z,97.1
2017-07-10T08:54:32.779Z,96.0